Terminal Aerodrome Forecast
Issued by NWS North Platte, NE

Current Version | Previous Version | Text Only | Print | Product List | Glossary On
Versions: 1 2 3 4 5 6 7 8 9 10 11 12 13 14
448
FTUS43 KLBF 262320
TAFLBF
TAF
KLBF 262320Z 2700/2724 03015G24KT P6SM SKC
     FM270100 36010KT P6SM SKC
     FM270300 VRB03KT P6SM SKC
     FM271400 28006KT P6SM SKC
     FM271900 32010KT P6SM SKC=

USA.gov is the U.S. government's official web portal to all federal, state and local government web resources and services.